createdAt,value
2017-09-13T00:01:07.147Z,960.48
2017-09-13T00:02:17.065Z,960.48
2017-09-13T00:03:27.001Z,960.48
2017-09-13T00:04:36.623Z,960.48
2017-09-13T00:05:46.888Z,960.46
2017-09-13T00:06:57.155Z,960.48
2017-09-13T00:08:07.672Z,960.44
2017-09-13T00:09:17.931Z,960.4
2017-09-13T00:10:27.868Z,960.38
2017-09-13T00:11:38.128Z,960.42
2017-09-13T00:12:48.395Z,960.43
2017-09-13T00:14:00.658Z,960.44
2017-09-13T00:15:10.597Z,960.42
2017-09-13T00:16:20.862Z,960.44
2017-09-13T00:17:30.810Z,960.47
2017-09-13T00:18:40.763Z,960.48
2017-09-13T00:19:51.048Z,960.49
2017-09-13T00:21:01.324Z,960.49
2017-09-13T00:22:11.590Z,960.49
2017-09-13T00:23:21.850Z,960.47
2017-09-13T00:24:32.114Z,960.5
2017-09-13T00:25:42.382Z,960.47
2017-09-13T00:26:52.645Z,960.48
2017-09-13T00:28:02.907Z,960.51
2017-09-13T00:29:13.168Z,960.48
2017-09-13T00:30:22.466Z,960.51
2017-09-13T00:31:32.730Z,960.5
2017-09-13T00:32:42.682Z,960.49
2017-09-13T00:33:52.971Z,960.54
2017-09-13T00:35:02.916Z,960.51
2017-09-13T00:36:12.212Z,960.58
2017-09-13T00:37:22.155Z,960.53
2017-09-13T00:38:32.412Z,960.59
2017-09-13T00:39:42.676Z,960.61
2017-09-13T00:40:52.938Z,960.62
2017-09-13T00:42:03.196Z,960.61
2017-09-13T00:43:13.134Z,960.62
2017-09-13T00:44:22.433Z,960.65
2017-09-13T00:45:32.376Z,960.62
2017-09-13T00:46:42.657Z,960.66
2017-09-13T00:47:52.918Z,960.67
2017-09-13T00:49:03.181Z,960.64
2017-09-13T00:50:13.127Z,960.63
2017-09-13T00:51:23.069Z,960.67
2017-09-13T00:52:33.009Z,960.64
2017-09-13T00:53:43.290Z,960.62
2017-09-13T00:54:53.551Z,960.61
2017-09-13T00:56:03.492Z,960.61
2017-09-13T00:57:13.441Z,960.61
2017-09-13T00:58:23.702Z,960.6
2017-09-13T00:59:33.318Z,960.61
2017-09-13T01:00:43.578Z,960.62
2017-09-13T01:01:53.833Z,960.63
2017-09-13T01:03:04.095Z,960.65
2017-09-13T01:04:14.363Z,960.66
2017-09-13T01:05:24.622Z,960.65
2017-09-13T01:06:34.557Z,960.63
2017-09-13T01:07:44.844Z,960.63
2017-09-13T01:08:55.102Z,960.66
2017-09-13T01:10:05.370Z,960.6
2017-09-13T01:11:15.641Z,960.65
2017-09-13T01:12:25.259Z,960.62
2017-09-13T01:13:35.523Z,960.65
2017-09-13T01:14:45.793Z,960.63
2017-09-13T01:15:56.053Z,960.66
2017-09-13T01:17:05.995Z,960.63
2017-09-13T01:18:16.256Z,960.64
2017-09-13T01:19:26.200Z,960.61
2017-09-13T01:20:36.174Z,960.59
2017-09-13T01:21:46.433Z,960.59
2017-09-13T01:22:56.692Z,960.61
2017-09-13T01:24:06.628Z,960.63
2017-09-13T01:25:16.561Z,960.65
2017-09-13T01:26:26.820Z,960.68
2017-09-13T01:27:36.763Z,960.68
2017-09-13T01:28:46.700Z,960.68
2017-09-13T01:29:56.971Z,960.7
2017-09-13T01:31:07.240Z,960.65
2017-09-13T01:32:17.503Z,960.67
2017-09-13T01:33:27.764Z,960.67
2017-09-13T01:34:37.060Z,960.67
2017-09-13T01:35:47.365Z,960.66
2017-09-13T01:36:57.626Z,960.66
2017-09-13T01:38:07.572Z,960.67
2017-09-13T01:39:17.831Z,960.61
2017-09-13T01:40:28.095Z,960.58
2017-09-13T01:41:38.372Z,960.61
2017-09-13T01:42:48.654Z,960.54
2017-09-13T01:43:58.914Z,960.53
2017-09-13T01:45:09.178Z,960.53
2017-09-13T01:46:19.118Z,960.54
2017-09-13T01:47:29.378Z,960.55
2017-09-13T01:48:39.636Z,960.52
2017-09-13T01:49:49.579Z,960.56
2017-09-13T01:50:59.852Z,960.53
2017-09-13T01:52:10.113Z,960.58
2017-09-13T01:53:19.734Z,960.55
2017-09-13T01:54:29.677Z,960.58
2017-09-13T01:55:39.941Z,960.56
2017-09-13T01:56:49.887Z,960.6
2017-09-13T01:57:59.825Z,960.59
2017-09-13T01:59:10.089Z,960.67
2017-09-13T02:00:20.349Z,960.69
2017-09-13T02:01:30.616Z,960.66
2017-09-13T02:02:40.888Z,960.67
2017-09-13T02:03:51.148Z,960.65
2017-09-13T02:05:01.087Z,960.68
2017-09-13T02:06:11.345Z,960.65
2017-09-13T02:07:20.962Z,960.67
2017-09-13T02:08:31.221Z,960.66
2017-09-13T02:09:40.841Z,960.61
2017-09-13T02:10:51.201Z,960.59
2017-09-13T02:12:01.461Z,960.59
2017-09-13T02:13:11.400Z,960.61
2017-09-13T02:14:21.347Z,960.58
2017-09-13T02:15:31.287Z,960.59
2017-09-13T02:16:41.235Z,960.54
2017-09-13T02:17:51.175Z,960.49
2017-09-13T02:19:01.433Z,960.48
2017-09-13T02:20:11.731Z,960.45
2017-09-13T02:21:21.358Z,960.51
2017-09-13T02:22:31.624Z,960.47
2017-09-13T02:23:41.567Z,960.53
2017-09-13T02:24:51.853Z,960.55
2017-09-13T02:26:01.796Z,960.56
2017-09-13T02:27:12.053Z,960.54
2017-09-13T02:28:22.308Z,960.54
2017-09-13T02:29:31.607Z,960.54
2017-09-13T02:30:41.868Z,960.59
2017-09-13T02:31:52.127Z,960.55
2017-09-13T02:33:02.398Z,960.56
2017-09-13T02:34:12.356Z,960.59
2017-09-13T02:35:22.654Z,960.59
2017-09-13T02:36:32.609Z,960.58
2017-09-13T02:37:42.868Z,960.63
2017-09-13T02:38:52.812Z,960.6
2017-09-13T02:40:02.754Z,960.59
2017-09-13T02:41:12.723Z,960.64
2017-09-13T02:42:22.987Z,960.6
2017-09-13T02:43:32.931Z,960.6
2017-09-13T02:44:43.195Z,960.62
2017-09-13T02:45:53.455Z,960.59
2017-09-13T02:47:03.722Z,960.6
2017-09-13T02:48:13.668Z,960.6
2017-09-13T02:49:23.655Z,960.58
2017-09-13T02:50:33.599Z,960.54
2017-09-13T02:51:43.533Z,960.56
2017-09-13T02:52:53.795Z,960.58
2017-09-13T02:54:04.061Z,960.55
2017-09-13T02:55:14.328Z,960.53
2017-09-13T02:56:24.271Z,960.53
2017-09-13T02:57:34.208Z,960.55
2017-09-13T02:58:43.835Z,960.54
2017-09-13T02:59:54.100Z,960.56
2017-09-13T03:01:04.362Z,960.56
2017-09-13T03:02:14.303Z,960.56
2017-09-13T03:03:24.253Z,960.58
2017-09-13T03:04:34.508Z,960.55
2017-09-13T03:05:44.778Z,960.59
2017-09-13T03:06:54.720Z,960.62
2017-09-13T03:08:04.979Z,960.63
2017-09-13T03:09:15.259Z,960.64
2017-09-13T03:10:25.538Z,960.64
2017-09-13T03:11:35.475Z,960.7
2017-09-13T03:12:45.738Z,960.63
2017-09-13T03:13:55.358Z,960.63
2017-09-13T03:15:05.619Z,960.67
2017-09-13T03:16:15.562Z,960.64
2017-09-13T03:17:25.825Z,960.67
2017-09-13T03:18:35.770Z,960.61
2017-09-13T03:19:45.711Z,960.61
2017-09-13T03:20:55.970Z,960.63
2017-09-13T03:22:06.239Z,960.67
2017-09-13T03:23:16.536Z,960.68
2017-09-13T03:24:26.801Z,960.69
2017-09-13T03:25:36.741Z,960.66
2017-09-13T03:26:47.002Z,960.67
2017-09-13T03:27:57.267Z,960.63
2017-09-13T03:29:07.522Z,960.66
2017-09-13T03:30:17.787Z,960.63
2017-09-13T03:31:27.411Z,960.67
2017-09-13T03:32:37.360Z,960.63
2017-09-13T03:33:46.979Z,960.66
2017-09-13T03:34:56.926Z,960.67
2017-09-13T03:36:07.189Z,960.68
2017-09-13T03:37:17.447Z,960.7
2017-09-13T03:38:27.392Z,960.7
2017-09-13T03:39:37.657Z,960.68
2017-09-13T03:40:47.921Z,960.65
2017-09-13T03:41:58.187Z,960.62
2017-09-13T03:43:07.808Z,960.64
2017-09-13T03:44:17.428Z,960.66
2017-09-13T03:45:27.687Z,960.66
2017-09-13T03:46:37.962Z,960.64
2017-09-13T03:47:47.581Z,960.63
2017-09-13T03:48:57.840Z,960.58
2017-09-13T03:50:08.099Z,960.58
2017-09-13T03:51:17.719Z,960.56
2017-09-13T03:52:27.979Z,960.56
2017-09-13T03:53:37.920Z,960.55
2017-09-13T03:54:48.176Z,960.57
2017-09-13T03:55:58.430Z,960.58
2017-09-13T03:57:08.696Z,960.59
2017-09-13T03:58:18.957Z,960.56
2017-09-13T03:59:28.901Z,960.54
2017-09-13T04:00:39.158Z,960.55
2017-09-13T04:01:49.098Z,960.55
2017-09-13T04:02:59.397Z,960.56
2017-09-13T04:04:09.700Z,960.54
2017-09-13T04:05:19.321Z,960.55
2017-09-13T04:06:29.257Z,960.57
2017-09-13T04:07:39.816Z,960.54
2017-09-13T04:08:49.431Z,960.57
2017-09-13T04:09:59.706Z,960.57
2017-09-13T04:11:09.964Z,960.57
2017-09-13T04:12:20.227Z,960.59
2017-09-13T04:13:31.946Z,960.59
2017-09-13T04:14:41.884Z,960.57
2017-09-13T04:15:51.820Z,960.58
2017-09-13T04:17:02.079Z,960.61
2017-09-13T04:18:12.374Z,960.62
2017-09-13T04:19:22.301Z,960.62
2017-09-13T04:20:32.561Z,960.6
2017-09-13T04:21:42.826Z,960.64
2017-09-13T04:22:52.779Z,960.61
2017-09-13T04:24:03.035Z,960.58
2017-09-13T04:25:13.544Z,960.61
2017-09-13T04:26:23.482Z,960.59
2017-09-13T04:27:33.746Z,960.59
2017-09-13T04:28:43.686Z,960.6
2017-09-13T04:29:53.948Z,960.58
2017-09-13T04:31:03.992Z,960.58
2017-09-13T04:32:13.611Z,960.57
2017-09-13T04:33:23.888Z,960.59
2017-09-13T04:34:33.825Z,960.58
2017-09-13T04:35:44.095Z,960.59
2017-09-13T04:36:56.137Z,960.51
2017-09-13T04:38:05.753Z,960.54
2017-09-13T04:39:15.408Z,960.54
2017-09-13T04:40:25.675Z,960.52
2017-09-13T04:41:35.615Z,960.53
2017-09-13T04:42:45.231Z,960.56
2017-09-13T04:43:55.169Z,960.56
2017-09-13T04:45:05.431Z,960.57
2017-09-13T04:46:15.373Z,960.56
2017-09-13T04:47:24.986Z,960.52
2017-09-13T04:48:34.927Z,960.54
2017-09-13T04:49:44.863Z,960.53
2017-09-13T04:50:55.136Z,960.5
2017-09-13T04:52:05.075Z,960.52
2017-09-13T04:53:14.697Z,960.54
2017-09-13T04:54:24.636Z,960.53
2017-09-13T04:55:34.576Z,960.53
2017-09-13T04:56:44.838Z,960.55
2017-09-13T04:57:54.789Z,960.59
2017-09-13T04:59:04.743Z,960.61
2017-09-13T05:00:15.014Z,960.61
2017-09-13T05:01:25.312Z,960.64
2017-09-13T05:02:35.572Z,960.66
2017-09-13T05:03:45.838Z,960.66
2017-09-13T05:04:55.464Z,960.63
2017-09-13T05:06:05.724Z,960.66
2017-09-13T05:07:15.662Z,960.7
2017-09-13T05:08:25.925Z,960.66
2017-09-13T05:09:36.187Z,960.64
2017-09-13T05:10:46.443Z,960.66
2017-09-13T05:11:56.706Z,960.66
2017-09-13T05:13:06.650Z,960.62
2017-09-13T05:14:16.912Z,960.67
2017-09-13T05:15:26.855Z,960.68
2017-09-13T05:16:36.797Z,960.64
2017-09-13T05:17:47.063Z,960.67
2017-09-13T05:18:57.003Z,960.67
2017-09-13T05:20:06.946Z,960.66
2017-09-13T05:21:16.886Z,960.62
2017-09-13T05:22:27.146Z,960.63
2017-09-13T05:23:37.410Z,960.66
2017-09-13T05:24:47.360Z,960.64
2017-09-13T05:25:57.297Z,960.67
2017-09-13T05:27:07.236Z,960.62
2017-09-13T05:28:17.492Z,960.64
2017-09-13T05:29:26.784Z,960.63
2017-09-13T05:30:36.753Z,960.63
2017-09-13T05:31:46.697Z,960.64
2017-09-13T05:32:56.963Z,960.62
2017-09-13T05:34:06.912Z,960.68
2017-09-13T05:35:16.535Z,960.66
2017-09-13T05:36:26.808Z,960.7
2017-09-13T05:37:37.068Z,960.67
2017-09-13T05:38:47.334Z,960.65
2017-09-13T05:39:57.592Z,960.63
2017-09-13T05:41:07.217Z,960.61
2017-09-13T05:42:17.156Z,960.61
2017-09-13T05:43:27.418Z,960.6
2017-09-13T05:44:37.357Z,960.63
2017-09-13T05:45:47.300Z,960.67
2017-09-13T05:46:56.927Z,960.65
2017-09-13T05:48:06.869Z,960.64
2017-09-13T05:49:17.131Z,960.59
2017-09-13T05:50:27.394Z,960.59
2017-09-13T05:51:37.342Z,960.6
2017-09-13T05:52:47.285Z,960.65
2017-09-13T05:53:57.232Z,960.64
2017-09-13T05:55:07.177Z,960.66
2017-09-13T05:56:17.433Z,960.68
2017-09-13T05:57:27.699Z,960.72
2017-09-13T05:58:37.648Z,960.72
2017-09-13T05:59:47.920Z,960.75
2017-09-13T06:00:57.860Z,960.76
2017-09-13T06:02:08.138Z,960.77
2017-09-13T06:03:18.804Z,960.72
2017-09-13T06:04:28.752Z,960.71
2017-09-13T06:05:39.012Z,960.68
2017-09-13T06:06:49.281Z,960.68
2017-09-13T06:07:59.220Z,960.67
2017-09-13T06:09:09.164Z,960.63
2017-09-13T06:10:19.431Z,960.62
2017-09-13T06:11:29.692Z,960.62
2017-09-13T06:12:39.632Z,960.63
2017-09-13T06:13:49.580Z,960.65
2017-09-13T06:14:59.841Z,960.66
2017-09-13T06:16:10.105Z,960.71
2017-09-13T06:17:20.046Z,960.67
2017-09-13T06:18:29.987Z,960.65
2017-09-13T06:19:40.250Z,960.64
2017-09-13T06:20:50.196Z,960.65
2017-09-13T06:22:00.462Z,960.67
2017-09-13T06:23:10.411Z,960.72
2017-09-13T06:24:20.378Z,960.73
2017-09-13T06:25:30.644Z,960.72
2017-09-13T06:26:40.594Z,960.7
2017-09-13T06:27:50.857Z,960.73
2017-09-13T06:29:00.477Z,960.71
2017-09-13T06:30:10.736Z,960.72
2017-09-13T06:31:20.685Z,960.77
2017-09-13T06:32:30.955Z,960.73
2017-09-13T06:33:40.893Z,960.74
2017-09-13T06:34:50.513Z,960.8
2017-09-13T06:36:00.452Z,960.72
2017-09-13T06:37:09.748Z,960.75
2017-09-13T06:38:19.691Z,960.71
2017-09-13T06:39:29.631Z,960.72
2017-09-13T06:40:39.581Z,960.74
2017-09-13T06:41:49.522Z,960.7
2017-09-13T06:42:59.471Z,960.71
2017-09-13T06:44:08.770Z,960.71
2017-09-13T06:45:18.711Z,960.68
2017-09-13T06:46:28.654Z,960.64
2017-09-13T06:47:38.920Z,960.66
2017-09-13T06:48:48.862Z,960.68
2017-09-13T06:49:58.916Z,960.68
2017-09-13T06:51:08.867Z,960.55
2017-09-13T06:52:19.123Z,960.62
2017-09-13T06:53:28.744Z,960.64
2017-09-13T06:54:39.009Z,960.65
2017-09-13T06:55:48.952Z,960.68
2017-09-13T06:56:59.219Z,960.73
2017-09-13T06:58:09.179Z,960.71
2017-09-13T06:59:19.440Z,960.7
2017-09-13T07:00:29.062Z,960.72
2017-09-13T07:01:39.334Z,960.75
2017-09-13T07:02:49.598Z,960.76
2017-09-13T07:03:59.878Z,960.76
2017-09-13T07:05:10.195Z,960.77
2017-09-13T07:06:20.141Z,960.79
2017-09-13T07:07:30.086Z,960.79
2017-09-13T07:08:40.356Z,960.8
2017-09-13T07:09:50.623Z,960.78
2017-09-13T07:11:00.570Z,960.78
2017-09-13T07:12:10.525Z,960.81
2017-09-13T07:13:20.794Z,960.79
2017-09-13T07:14:30.419Z,960.82
2017-09-13T07:15:40.688Z,960.8
2017-09-13T07:16:50.631Z,960.84
2017-09-13T07:18:00.253Z,960.84
2017-09-13T07:19:10.193Z,960.88
2017-09-13T07:20:19.815Z,960.87
2017-09-13T07:21:30.082Z,960.89
2017-09-13T07:22:39.718Z,960.92
2017-09-13T07:23:49.338Z,960.87
2017-09-13T07:24:59.292Z,960.86
2017-09-13T07:26:09.236Z,960.82
2017-09-13T07:27:19.190Z,960.82
2017-09-13T07:28:29.137Z,960.82
2017-09-13T07:29:39.092Z,960.83
2017-09-13T07:30:49.378Z,960.83
2017-09-13T07:31:59.326Z,960.85
2017-09-13T07:33:09.600Z,960.83
2017-09-13T07:34:19.550Z,960.8
2017-09-13T07:35:29.826Z,960.82
2017-09-13T07:36:40.136Z,960.82
2017-09-13T07:37:50.087Z,960.84
2017-09-13T07:39:00.028Z,960.81
2017-09-13T07:40:09.333Z,960.79
2017-09-13T07:41:19.280Z,960.76
2017-09-13T07:42:29.553Z,960.77
2017-09-13T07:43:39.824Z,960.75
2017-09-13T07:44:49.769Z,960.78
2017-09-13T07:46:00.041Z,960.77
2017-09-13T07:47:09.983Z,960.8
2017-09-13T07:48:20.254Z,960.8
2017-09-13T07:49:29.876Z,960.81
2017-09-13T07:50:40.145Z,960.76
2017-09-13T07:51:50.423Z,960.8
2017-09-13T07:53:00.699Z,960.82
2017-09-13T07:54:10.649Z,960.81
2017-09-13T07:55:20.593Z,960.79
2017-09-13T07:56:29.899Z,960.8
2017-09-13T07:57:40.160Z,960.8
2017-09-13T07:58:50.102Z,960.79
2017-09-13T08:00:00.376Z,960.79
2017-09-13T08:01:10.649Z,960.79
2017-09-13T08:02:20.269Z,960.73
2017-09-13T08:03:30.543Z,960.73
2017-09-13T08:04:40.831Z,960.73
2017-09-13T08:05:50.774Z,960.72
2017-09-13T08:07:00.400Z,960.74
2017-09-13T08:08:10.672Z,960.77
2017-09-13T08:09:20.729Z,960.85
2017-09-13T08:10:31.976Z,960.83
2017-09-13T08:11:42.256Z,960.85
2017-09-13T08:12:52.198Z,960.8
2017-09-13T08:14:02.464Z,960.85
2017-09-13T08:15:12.733Z,960.86
2017-09-13T08:16:22.682Z,960.91
2017-09-13T08:17:32.954Z,960.92
2017-09-13T08:18:43.228Z,960.89
2017-09-13T08:19:52.207Z,960.84
2017-09-13T08:21:02.191Z,960.85
2017-09-13T08:22:12.466Z,960.85
2017-09-13T08:23:22.409Z,960.82
2017-09-13T08:24:32.353Z,960.89
2017-09-13T08:25:42.623Z,960.87
2017-09-13T08:26:52.927Z,960.88
2017-09-13T08:28:03.209Z,960.86
2017-09-13T08:29:12.831Z,960.84
2017-09-13T08:30:22.778Z,960.85
2017-09-13T08:31:33.048Z,960.86
2017-09-13T08:32:42.668Z,960.77
2017-09-13T08:33:52.302Z,960.78
2017-09-13T08:35:02.253Z,960.76
2017-09-13T08:36:12.526Z,960.76
2017-09-13T08:37:22.792Z,960.75
2017-09-13T08:38:32.746Z,960.76
2017-09-13T08:39:42.752Z,960.78
2017-09-13T08:40:53.024Z,960.8
2017-09-13T08:42:03.293Z,960.79
2017-09-13T08:43:12.923Z,960.8
2017-09-13T08:44:22.872Z,960.72
2017-09-13T08:45:32.833Z,960.74
2017-09-13T08:46:42.456Z,960.71
2017-09-13T08:47:52.408Z,960.73
2017-09-13T08:49:02.678Z,960.74
2017-09-13T08:50:12.945Z,960.72
2017-09-13T08:51:22.891Z,960.7
2017-09-13T08:52:32.511Z,960.67
2017-09-13T08:53:42.783Z,960.71
2017-09-13T08:54:52.729Z,960.64
2017-09-13T08:56:02.357Z,960.68
2017-09-13T08:57:12.304Z,960.71
2017-09-13T08:58:21.934Z,960.67
2017-09-13T08:59:31.884Z,960.69
2017-09-13T09:00:41.840Z,960.69
2017-09-13T09:01:52.112Z,960.7
2017-09-13T09:03:02.384Z,960.68
2017-09-13T09:04:12.652Z,960.68
2017-09-13T09:05:22.604Z,960.65
2017-09-13T09:06:32.873Z,960.64
2017-09-13T09:07:42.822Z,960.64
2017-09-13T09:08:53.088Z,960.61
2017-09-13T09:10:03.358Z,960.62
2017-09-13T09:11:13.003Z,960.59
2017-09-13T09:12:22.955Z,960.57
2017-09-13T09:13:32.904Z,960.59
2017-09-13T09:14:42.849Z,960.57
2017-09-13T09:15:52.480Z,960.61
2017-09-13T09:17:02.657Z,960.61
2017-09-13T09:18:12.287Z,960.64
2017-09-13T09:19:22.231Z,960.62
2017-09-13T09:20:31.854Z,960.64
2017-09-13T09:21:41.801Z,960.61
2017-09-13T09:22:52.072Z,960.62
2017-09-13T09:24:01.699Z,960.64
2017-09-13T09:25:11.650Z,960.64
2017-09-13T09:26:21.621Z,960.6
2017-09-13T09:27:31.891Z,960.59
2017-09-13T09:28:41.518Z,960.56
2017-09-13T09:29:51.789Z,960.56
2017-09-13T09:31:02.058Z,960.56
2017-09-13T09:32:12.326Z,960.53
2017-09-13T09:33:21.308Z,960.53
2017-09-13T09:34:31.574Z,960.57
2017-09-13T09:35:41.848Z,960.55
2017-09-13T09:36:52.122Z,960.53
2017-09-13T09:38:02.392Z,960.55
2017-09-13T09:39:12.023Z,960.54
2017-09-13T09:40:21.334Z,960.58
2017-09-13T09:41:31.284Z,960.54
2017-09-13T09:42:41.561Z,960.55
2017-09-13T09:43:51.839Z,960.56
2017-09-13T09:45:02.109Z,960.53
2017-09-13T09:46:12.377Z,960.51
2017-09-13T09:47:21.685Z,960.51
2017-09-13T09:48:31.321Z,960.54
2017-09-13T09:49:41.586Z,960.52
2017-09-13T09:50:51.210Z,960.55
2017-09-13T09:52:01.481Z,960.54
2017-09-13T09:53:11.429Z,960.55
2017-09-13T09:54:21.389Z,960.52
2017-09-13T09:55:31.337Z,960.5
2017-09-13T09:56:41.282Z,960.51
2017-09-13T09:57:51.230Z,960.48
2017-09-13T09:59:00.863Z,960.47
2017-09-13T10:00:11.136Z,960.52
2017-09-13T10:01:21.085Z,960.5
2017-09-13T10:02:30.722Z,960.49
2017-09-13T10:03:40.356Z,960.45
2017-09-13T10:04:49.981Z,960.52
2017-09-13T10:06:00.253Z,960.52
2017-09-13T10:07:10.205Z,960.49
2017-09-13T10:08:20.152Z,960.51
2017-09-13T10:09:29.779Z,960.5
2017-09-13T10:10:40.078Z,960.55
2017-09-13T10:11:50.041Z,960.58
2017-09-13T10:13:00.002Z,960.58
2017-09-13T10:14:10.291Z,960.57
2017-09-13T10:15:20.242Z,960.51
2017-09-13T10:16:30.225Z,960.56
2017-09-13T10:17:39.854Z,960.54
2017-09-13T10:18:50.147Z,960.55
2017-09-13T10:20:00.113Z,960.57
2017-09-13T10:21:10.066Z,960.56
2017-09-13T10:22:20.342Z,960.59
2017-09-13T10:23:30.295Z,960.58
2017-09-13T10:24:40.562Z,960.6
2017-09-13T10:25:50.834Z,960.6
2017-09-13T10:27:00.790Z,960.58
2017-09-13T10:28:11.066Z,960.56
2017-09-13T10:29:21.334Z,960.62
2017-09-13T10:30:31.604Z,960.62
2017-09-13T10:31:41.875Z,960.63
2017-09-13T10:32:52.144Z,960.6
2017-09-13T10:34:02.095Z,960.63
2017-09-13T10:35:12.043Z,960.63
2017-09-13T10:36:21.667Z,960.66
2017-09-13T10:37:31.940Z,960.64
2017-09-13T10:38:41.912Z,960.61
2017-09-13T10:39:52.179Z,960.58
2017-09-13T10:41:01.803Z,960.57
2017-09-13T10:42:12.073Z,960.59
2017-09-13T10:43:22.024Z,960.51
2017-09-13T10:44:31.651Z,960.56
2017-09-13T10:45:41.919Z,960.53
2017-09-13T10:46:51.545Z,960.54
2017-09-13T10:48:01.498Z,960.57
2017-09-13T10:49:11.766Z,960.56
2017-09-13T10:50:21.711Z,960.53
2017-09-13T10:51:31.663Z,960.53
2017-09-13T10:52:41.930Z,960.53
2017-09-13T10:53:52.206Z,960.53
2017-09-13T10:55:02.161Z,960.53
2017-09-13T10:56:12.430Z,960.51
2017-09-13T10:57:22.378Z,960.54
2017-09-13T10:58:31.364Z,960.5
2017-09-13T10:59:41.630Z,960.49
2017-09-13T11:00:51.900Z,960.46
2017-09-13T11:02:02.174Z,960.41
2017-09-13T11:03:12.133Z,960.37
2017-09-13T11:04:22.099Z,960.41
2017-09-13T11:05:31.731Z,960.41
2017-09-13T11:06:41.680Z,960.37
2017-09-13T11:07:51.946Z,960.37
2017-09-13T11:09:02.219Z,960.36
2017-09-13T11:10:12.177Z,960.38
2017-09-13T11:11:21.807Z,960.34
2017-09-13T11:12:31.756Z,960.35
2017-09-13T11:13:42.025Z,960.35
2017-09-13T11:14:51.971Z,960.37
2017-09-13T11:16:01.606Z,960.33
2017-09-13T11:17:11.874Z,960.36
2017-09-13T11:18:21.822Z,960.37
2017-09-13T11:19:31.776Z,960.36
2017-09-13T11:20:42.045Z,960.35
2017-09-13T11:21:52.326Z,960.35
2017-09-13T11:23:02.596Z,960.32
2017-09-13T11:24:12.873Z,960.32
2017-09-13T11:25:23.146Z,960.32
2017-09-13T11:26:33.419Z,960.31
2017-09-13T11:27:43.687Z,960.26
2017-09-13T11:28:53.956Z,960.31
2017-09-13T11:30:03.912Z,960.33
2017-09-13T11:31:13.540Z,960.39
2017-09-13T11:32:23.167Z,960.38
2017-09-13T11:33:33.119Z,960.33
2017-09-13T11:34:43.067Z,960.32
2017-09-13T11:35:53.334Z,960.46
2017-09-13T11:37:02.963Z,960.33
2017-09-13T11:38:13.238Z,960.27
2017-09-13T11:39:23.199Z,960.3
2017-09-13T11:40:33.468Z,960.29
2017-09-13T11:41:43.423Z,960.36
2017-09-13T11:42:53.704Z,960.3
2017-09-13T11:44:03.972Z,960.42
2017-09-13T11:45:13.926Z,960.44
2017-09-13T11:46:23.872Z,960.36
2017-09-13T11:47:34.145Z,960.37
2017-09-13T11:48:44.425Z,960.35
2017-09-13T11:49:54.705Z,960.29
2017-09-13T11:51:05.012Z,960.35
2017-09-13T11:52:14.645Z,960.42
2017-09-13T11:53:24.598Z,960.39
2017-09-13T11:54:34.550Z,960.4
2017-09-13T11:55:44.823Z,960.38
2017-09-13T11:56:54.454Z,960.38
2017-09-13T11:58:04.416Z,960.47
2017-09-13T11:59:14.048Z,960.37
2017-09-13T12:00:23.363Z,960.37
2017-09-13T12:01:33.318Z,960.25
2017-09-13T12:02:43.278Z,960.24
2017-09-13T12:03:52.918Z,960.34
2017-09-13T12:05:02.552Z,960.24
2017-09-13T12:06:12.510Z,960.41
2017-09-13T12:07:22.140Z,960.5
2017-09-13T12:08:32.095Z,960.39
2017-09-13T12:09:42.401Z,960.32
2017-09-13T12:10:52.384Z,960.29
2017-09-13T12:12:02.661Z,960.24
2017-09-13T12:13:12.620Z,960.29
2017-09-13T12:14:22.569Z,960.39
2017-09-13T12:15:32.522Z,960.39
2017-09-13T12:16:42.810Z,960.3
2017-09-13T12:17:52.443Z,960.28
2017-09-13T12:19:02.074Z,960.24
2017-09-13T12:20:12.349Z,960.21
2017-09-13T12:21:21.681Z,960.24
2017-09-13T12:22:31.329Z,960.23
2017-09-13T12:23:41.279Z,960.26
2017-09-13T12:24:51.236Z,960.24
2017-09-13T12:26:01.510Z,960.24
2017-09-13T12:27:11.469Z,960.23
2017-09-13T12:28:21.740Z,960.21
2017-09-13T12:29:31.373Z,960.24
2017-09-13T12:30:41.676Z,960.23
2017-09-13T12:31:51.639Z,960.2
2017-09-13T12:33:01.914Z,960.19
2017-09-13T12:34:11.566Z,960.22
2017-09-13T12:35:21.194Z,960.26
2017-09-13T12:36:31.467Z,960.23
2017-09-13T12:37:41.736Z,960.2
2017-09-13T12:38:51.694Z,960.22
2017-09-13T12:40:01.996Z,960.23
2017-09-13T12:41:12.273Z,960.18
2017-09-13T12:42:22.232Z,960.2
2017-09-13T12:43:32.183Z,960.17
2017-09-13T12:44:42.133Z,960.22
2017-09-13T12:45:52.092Z,960.24
2017-09-13T12:47:02.369Z,960.29
2017-09-13T12:48:12.319Z,960.32
2017-09-13T12:49:21.625Z,960.37
2017-09-13T12:50:31.257Z,960.38
2017-09-13T12:51:41.208Z,960.45
2017-09-13T12:52:51.163Z,960.51
2017-09-13T12:54:01.431Z,960.46
2017-09-13T12:55:11.385Z,960.53
2017-09-13T12:56:21.658Z,960.45
2017-09-13T12:57:31.940Z,960.67
2017-09-13T12:58:42.226Z,960.56
2017-09-13T12:59:52.180Z,960.62
2017-09-13T13:01:02.466Z,960.54
2017-09-13T13:02:12.745Z,960.49
2017-09-13T13:03:22.700Z,960.52
2017-09-13T13:04:32.982Z,960.36
2017-09-13T13:05:42.938Z,960.19
2017-09-13T13:06:52.897Z,960.15
2017-09-13T13:08:02.541Z,960.1
2017-09-13T13:09:12.536Z,960.08
2017-09-13T13:10:22.173Z,960.11
2017-09-13T13:11:32.128Z,960.14
2017-09-13T13:12:42.403Z,960.09
2017-09-13T13:13:52.042Z,960.01
2017-09-13T13:15:02.001Z,960.1
2017-09-13T13:16:12.279Z,960.15
2017-09-13T13:17:22.561Z,960.14
2017-09-13T13:18:32.518Z,960.2
2017-09-13T13:19:42.796Z,959.99
2017-09-13T13:20:52.751Z,959.9
2017-09-13T13:22:02.703Z,959.91
2017-09-13T13:23:12.703Z,959.92
2017-09-13T13:24:22.669Z,959.91
2017-09-13T13:25:32.626Z,959.86
2017-09-13T13:26:42.297Z,959.92
2017-09-13T13:27:52.253Z,959.91
2017-09-13T13:29:02.525Z,959.93
2017-09-13T13:30:12.158Z,959.93
2017-09-13T13:31:22.112Z,959.88
2017-09-13T13:32:32.083Z,959.85
2017-09-13T13:33:42.043Z,959.87
2017-09-13T13:34:52.002Z,959.81
2017-09-13T13:36:02.277Z,959.79
2017-09-13T13:37:12.236Z,959.74
2017-09-13T13:38:22.186Z,959.77
2017-09-13T13:39:32.462Z,959.72
2017-09-13T13:40:42.740Z,959.74
2017-09-13T13:41:52.689Z,959.75
2017-09-13T13:43:02.996Z,959.77
2017-09-13T13:44:13.275Z,959.74
2017-09-13T13:45:23.227Z,959.74
2017-09-13T13:46:32.540Z,959.71
2017-09-13T13:47:42.493Z,959.74
2017-09-13T13:48:52.766Z,959.72
2017-09-13T13:50:03.046Z,959.7
2017-09-13T13:51:13.320Z,959.69
2017-09-13T13:52:23.277Z,959.71
2017-09-13T13:53:32.583Z,959.68
2017-09-13T13:54:42.542Z,959.66
2017-09-13T13:55:52.812Z,959.67
2017-09-13T13:57:02.450Z,959.66
2017-09-13T13:58:12.728Z,959.61
2017-09-13T13:59:22.361Z,959.57
2017-09-13T14:00:32.314Z,959.56
2017-09-13T14:01:42.270Z,959.51
2017-09-13T14:02:52.540Z,959.51
2017-09-13T14:04:02.809Z,959.44
2017-09-13T14:05:12.763Z,959.53
2017-09-13T14:06:22.397Z,959.51
2017-09-13T14:07:32.692Z,959.49
2017-09-13T14:08:42.640Z,959.46
2017-09-13T14:09:52.593Z,959.47
2017-09-13T14:11:02.866Z,959.49
2017-09-13T14:12:12.819Z,959.44
2017-09-13T14:13:22.773Z,959.48
2017-09-13T14:14:32.731Z,959.49
2017-09-13T14:15:42.999Z,959.43
2017-09-13T14:16:52.625Z,959.46
2017-09-13T14:18:02.253Z,959.44
2017-09-13T14:19:12.537Z,959.41
2017-09-13T14:20:21.876Z,959.41
2017-09-13T14:21:32.146Z,959.36
2017-09-13T14:22:42.417Z,959.36
2017-09-13T14:23:52.694Z,959.34
2017-09-13T14:25:02.647Z,959.36
2017-09-13T14:26:12.924Z,959.33
2017-09-13T14:27:23.195Z,959.31
2017-09-13T14:28:33.469Z,959.33
2017-09-13T14:29:43.423Z,959.3
2017-09-13T14:30:53.056Z,959.3
2017-09-13T14:32:03.335Z,959.28
2017-09-13T14:33:13.284Z,959.31
2017-09-13T14:34:23.549Z,959.3
2017-09-13T14:35:33.178Z,959.25
2017-09-13T14:36:43.127Z,959.25